createdAt,value
2022-08-20T00:00:19.831Z,48.10
2022-08-20T00:03:27.421Z,49.40
2022-08-20T00:06:29.361Z,52.90
2022-08-20T00:09:31.300Z,49.00
2022-08-20T00:12:38.756Z,51.80
2022-08-20T00:15:40.712Z,52.80
2022-08-20T00:18:42.959Z,51.30
2022-08-20T00:21:45.002Z,52.70
2022-08-20T00:24:48.893Z,52.10
2022-08-20T00:27:51.051Z,51.70
2022-08-20T00:30:53.009Z,52.60
2022-08-20T00:33:54.938Z,53.80
2022-08-20T00:36:56.887Z,55.00
2022-08-20T00:39:58.844Z,55.60
2022-08-20T00:43:02.241Z,56.00
2022-08-20T00:46:12.928Z,58.50
2022-08-20T00:49:20.245Z,59.80
2022-08-20T00:52:22.257Z,60.10
2022-08-20T00:55:27.501Z,58.10
2022-08-20T00:58:33.105Z,58.00
2022-08-20T01:01:40.663Z,59.70
2022-08-20T01:04:57.459Z,59.50
2022-08-20T01:07:59.425Z,60.20
2022-08-20T01:11:12.448Z,60.30
2022-08-20T01:14:25.154Z,60.80
2022-08-20T01:17:29.102Z,61.60
2022-08-20T01:20:33.454Z,61.50
2022-08-20T01:23:57.552Z,63.90
2022-08-20T01:26:59.479Z,68.90
2022-08-20T01:30:01.494Z,64.70
2022-08-20T01:33:08.084Z,63.70
2022-08-20T01:36:10.626Z,64.60
2022-08-20T01:39:21.541Z,65.90
2022-08-20T01:42:29.922Z,68.10
2022-08-20T01:45:31.852Z,68.80
2022-08-20T01:48:33.713Z,66.80
2022-08-20T01:51:35.814Z,67.40
2022-08-20T01:54:38.083Z,71.40
2022-08-20T01:57:40.104Z,71.30
2022-08-20T02:00:42.079Z,71.00
2022-08-20T02:03:44.849Z,71.60
2022-08-20T02:06:57.844Z,71.30
2022-08-20T02:10:00.174Z,72.30
2022-08-20T02:13:02.290Z,71.90
2022-08-20T02:16:05.999Z,73.50
2022-08-20T02:19:39.268Z,75.40
2022-08-20T02:22:53.096Z,79.10
2022-08-20T02:25:57.120Z,79.40
2022-08-20T02:29:01.235Z,77.70
2022-08-20T02:32:24.374Z,76.70
2022-08-20T02:35:25.747Z,77.30
2022-08-20T02:38:27.766Z,79.80
2022-08-20T02:41:29.751Z,82.50
2022-08-20T02:44:32.401Z,80.70
2022-08-20T02:47:34.348Z,80.60
2022-08-20T02:50:36.284Z,82.60
2022-08-20T02:53:39.751Z,83.90
2022-08-20T02:56:41.831Z,89.20
2022-08-20T02:59:45.334Z,85.30
2022-08-20T03:02:47.369Z,86.30
2022-08-20T03:05:50.860Z,86.30
2022-08-20T03:08:53.148Z,86.10
2022-08-20T03:11:55.047Z,87.80
2022-08-20T03:14:57.097Z,87.20
2022-08-20T03:17:59.144Z,88.90
2022-08-20T03:21:01.453Z,90.30
2022-08-20T03:24:04.340Z,91.80
2022-08-20T03:27:06.428Z,90.50
2022-08-20T03:30:10.443Z,91.30
2022-08-20T03:33:12.371Z,92.30
2022-08-20T03:36:14.359Z,90.80
2022-08-20T03:39:22.710Z,91.20
2022-08-20T03:42:24.635Z,90.90
2022-08-20T03:45:27.184Z,91.80
2022-08-20T03:48:29.374Z,91.90
2022-08-20T03:51:45.821Z,91.90
2022-08-20T03:54:53.956Z,94.10
2022-08-20T03:57:59.022Z,93.80
2022-08-20T04:01:01.249Z,93.50
2022-08-20T04:04:03.472Z,95.50
2022-08-20T04:07:16.528Z,93.90
2022-08-20T04:10:18.481Z,97.70
2022-08-20T04:13:23.648Z,94.30
2022-08-20T04:16:27.572Z,95.90
2022-08-20T04:19:33.822Z,96.00
2022-08-20T04:22:36.982Z,95.10
2022-08-20T04:25:42.570Z,94.50
2022-08-20T04:28:45.285Z,94.80
2022-08-20T04:31:47.196Z,96.90
2022-08-20T04:34:51.490Z,96.40
2022-08-20T04:38:01.650Z,97.50
2022-08-20T04:41:03.677Z,99.10
2022-08-20T04:44:05.857Z,96.60
2022-08-20T04:47:08.075Z,97.80
2022-08-20T04:50:10.881Z,98.50
2022-08-20T04:53:13.995Z,99.90
2022-08-20T04:56:15.940Z,99.20
2022-08-20T04:59:17.836Z,99.40
2022-08-20T05:02:20.520Z,98.70
2022-08-20T05:05:22.601Z,99.20
2022-08-20T05:08:25.695Z,99.20
2022-08-20T05:11:34.973Z,98.80
2022-08-20T05:14:38.604Z,99.80
2022-08-20T05:17:41.039Z,98.70
2022-08-20T05:20:42.941Z,99.90
2022-08-20T05:23:44.944Z,99.90
2022-08-20T05:26:47.056Z,99.90
2022-08-20T05:29:48.970Z,99.90
2022-08-20T05:32:51.245Z,99.90
2022-08-20T05:35:53.452Z,99.90
2022-08-20T05:38:55.362Z,99.90
2022-08-20T05:41:57.988Z,99.90
2022-08-20T05:44:59.910Z,99.90
2022-08-20T05:48:28.113Z,99.90
2022-08-20T05:51:30.161Z,99.90
2022-08-20T05:54:32.667Z,99.90
2022-08-20T05:57:34.592Z,99.40
2022-08-20T06:00:37.487Z,99.90
2022-08-20T06:03:57.923Z,98.60
2022-08-20T06:07:04.732Z,97.20
2022-08-20T06:10:07.697Z,97.40
2022-08-20T06:13:10.057Z,96.90
2022-08-20T06:16:16.188Z,95.40
2022-08-20T06:19:24.999Z,94.70
2022-08-20T06:22:28.325Z,93.90
2022-08-20T06:25:31.538Z,93.70
2022-08-20T06:28:35.396Z,93.00
2022-08-20T06:31:39.960Z,92.60
2022-08-20T06:34:50.555Z,91.00
2022-08-20T06:37:53.281Z,89.50
2022-08-20T06:40:55.189Z,70.60
2022-08-20T06:43:57.014Z,71.80
2022-08-20T06:47:04.084Z,44.50
2022-08-20T06:50:13.521Z,45.60
2022-08-20T06:53:17.530Z,50.90
2022-08-20T06:56:19.433Z,45.70
2022-08-20T06:59:22.098Z,43.10
2022-08-20T07:02:29.172Z,37.70
2022-08-20T07:05:38.439Z,36.70
2022-08-20T07:08:40.874Z,25.40
2022-08-20T07:11:43.581Z,29.10
2022-08-20T07:14:45.516Z,28.60
2022-08-20T07:18:00.273Z,27.00
2022-08-20T07:21:03.068Z,19.40
2022-08-20T07:24:05.531Z,24.90
2022-08-20T07:27:07.609Z,22.80
2022-08-20T07:30:33.437Z,19.20
2022-08-20T07:33:55.597Z,18.00
2022-08-20T07:37:01.331Z,19.20
2022-08-20T07:40:03.880Z,15.20
2022-08-20T07:43:05.847Z,16.10
2022-08-20T07:46:11.054Z,15.10
2022-08-20T07:49:12.952Z,13.50
2022-08-20T07:52:15.861Z,13.60
2022-08-20T07:55:17.759Z,13.30
2022-08-20T07:58:21.277Z,11.70
2022-08-20T08:01:30.715Z,10.50
2022-08-20T08:04:32.766Z,8.10
2022-08-20T08:07:34.765Z,9.10
2022-08-20T08:10:37.859Z,8.90
2022-08-20T08:13:40.612Z,7.70
2022-08-20T08:16:45.341Z,6.70
2022-08-20T08:19:49.111Z,6.70
2022-08-20T08:22:51.218Z,5.50
2022-08-20T08:25:53.280Z,5.50
2022-08-20T08:28:55.198Z,4.20
2022-08-20T08:31:57.204Z,4.80
2022-08-20T08:35:02.796Z,4.00
2022-08-20T08:38:04.719Z,3.60
2022-08-20T08:41:20.732Z,4.20
2022-08-20T08:44:30.229Z,1.00
2022-08-20T08:47:35.722Z,1.00
2022-08-20T08:50:53.996Z,2.80
2022-08-20T08:53:56.903Z,2.10
2022-08-20T08:56:59.686Z,2.60
2022-08-20T09:00:10.283Z,2.60
2022-08-20T09:03:16.053Z,1.00
2022-08-20T09:06:20.496Z,1.00
2022-08-20T09:09:29.847Z,1.60
2022-08-20T09:12:33.202Z,1.00
2022-08-20T09:15:35.181Z,1.40
2022-08-20T09:18:37.148Z,1.00
2022-08-20T09:21:39.089Z,1.00
2022-08-20T09:24:41.679Z,1.10
2022-08-20T09:27:43.690Z,1.00
2022-08-20T09:30:47.470Z,1.00
2022-08-20T09:33:50.227Z,3.30
2022-08-20T09:36:52.136Z,2.80
2022-08-20T09:39:54.249Z,2.20
2022-08-20T09:42:56.412Z,2.30
2022-08-20T09:45:58.559Z,2.10
2022-08-20T09:49:00.436Z,2.80
2022-08-20T09:52:02.507Z,2.90
2022-08-20T09:55:08.115Z,3.40
2022-08-20T09:58:23.751Z,2.70
2022-08-20T10:01:25.729Z,2.80
2022-08-20T10:04:27.736Z,3.90
2022-08-20T10:07:29.735Z,5.30
2022-08-20T10:10:31.643Z,5.90
2022-08-20T10:13:33.563Z,5.50
2022-08-20T10:16:36.323Z,5.80
2022-08-20T10:19:38.377Z,6.70
2022-08-20T10:22:40.332Z,7.10
2022-08-20T10:25:42.989Z,7.40
2022-08-20T10:28:44.934Z,8.30
2022-08-20T10:31:46.972Z,8.20
2022-08-20T10:34:48.904Z,8.80
2022-08-20T10:37:50.843Z,8.90
2022-08-20T10:40:52.787Z,8.60
2022-08-20T10:43:54.716Z,8.50
2022-08-20T10:47:03.064Z,8.90
2022-08-20T10:50:06.464Z,8.40
2022-08-20T10:53:08.400Z,7.90
2022-08-20T10:56:15.045Z,7.60
2022-08-20T10:59:17.460Z,7.50
2022-08-20T11:02:19.924Z,9.00
2022-08-20T11:05:21.867Z,7.20
2022-08-20T11:08:33.486Z,7.40
2022-08-20T11:11:35.860Z,8.60
2022-08-20T11:14:37.904Z,7.70
2022-08-20T11:17:41.009Z,7.70
2022-08-20T11:20:42.945Z,6.80
2022-08-20T11:23:44.853Z,6.00
2022-08-20T11:26:47.759Z,5.60
2022-08-20T11:29:49.663Z,5.70
2022-08-20T11:32:51.637Z,6.90
2022-08-20T11:35:53.562Z,6.10
2022-08-20T11:38:55.926Z,6.10
2022-08-20T11:41:57.857Z,3.70
2022-08-20T11:44:59.818Z,3.90
2022-08-20T11:48:01.720Z,4.70
2022-08-20T11:51:03.957Z,3.70
2022-08-20T11:54:06.088Z,4.20
2022-08-20T11:57:09.078Z,3.30
2022-08-20T12:00:16.340Z,3.10
2022-08-20T12:03:18.313Z,3.10
2022-08-20T12:06:20.294Z,2.90
2022-08-20T12:09:24.811Z,4.40
2022-08-20T12:12:26.867Z,5.60
2022-08-20T12:15:28.925Z,5.20
2022-08-20T12:18:31.934Z,5.00
2022-08-20T12:21:33.919Z,4.60
2022-08-20T12:24:36.284Z,4.30
2022-08-20T12:27:38.355Z,4.70
2022-08-20T12:30:40.389Z,4.70
2022-08-20T12:33:42.351Z,3.90
2022-08-20T12:36:44.266Z,3.80
2022-08-20T12:39:50.827Z,4.80
2022-08-20T12:42:52.839Z,4.80
2022-08-20T12:45:55.837Z,5.70
2022-08-20T12:48:57.765Z,4.70
2022-08-20T12:51:59.631Z,4.80
2022-08-20T12:55:01.842Z,4.60
2022-08-20T12:58:04.271Z,4.40
2022-08-20T13:01:06.360Z,5.10
2022-08-20T13:04:08.282Z,5.90
2022-08-20T13:07:11.483Z,6.50
2022-08-20T13:10:16.413Z,6.00
2022-08-20T13:13:20.657Z,6.70
2022-08-20T13:16:23.064Z,5.20
2022-08-20T13:19:25.804Z,5.50
2022-08-20T13:22:27.721Z,5.50
2022-08-20T13:25:29.726Z,6.40
2022-08-20T13:28:31.882Z,6.00
2022-08-20T13:31:33.796Z,5.10
2022-08-20T13:34:35.709Z,5.90
2022-08-20T13:37:37.796Z,5.20
2022-08-20T13:40:39.792Z,6.80
2022-08-20T13:43:41.707Z,7.00
2022-08-20T13:46:43.604Z,6.30
2022-08-20T13:49:46.093Z,6.80
2022-08-20T13:52:48.330Z,6.90
2022-08-20T13:55:50.410Z,6.90
2022-08-20T13:58:53.094Z,6.90
2022-08-20T14:01:55.192Z,7.50
2022-08-20T14:04:57.195Z,6.70
2022-08-20T14:08:19.645Z,6.20
2022-08-20T14:11:21.644Z,5.40
2022-08-20T14:14:23.560Z,5.90
2022-08-20T14:17:33.462Z,5.50
2022-08-20T14:20:35.947Z,6.60
2022-08-20T14:23:40.800Z,6.50
2022-08-20T14:26:42.712Z,5.30
2022-08-20T14:29:45.381Z,6.10
2022-08-20T14:32:47.613Z,5.90
2022-08-20T14:35:49.632Z,6.30
2022-08-20T14:38:51.663Z,5.20
2022-08-20T14:41:53.595Z,4.50
2022-08-20T14:44:56.167Z,5.10
2022-08-20T14:47:58.246Z,5.90
2022-08-20T14:51:00.898Z,5.90
2022-08-20T14:54:02.807Z,5.70
2022-08-20T14:57:04.988Z,4.10
2022-08-20T15:00:34.664Z,4.90
2022-08-20T15:03:36.576Z,4.90
2022-08-20T15:06:39.792Z,4.60
2022-08-20T15:09:41.730Z,4.80
2022-08-20T15:12:43.700Z,4.50
2022-08-20T15:15:45.659Z,5.40
2022-08-20T15:18:47.612Z,5.20
2022-08-20T15:21:49.604Z,5.90
2022-08-20T15:24:55.489Z,5.70
2022-08-20T15:28:00.769Z,5.10
2022-08-20T15:31:09.044Z,4.80
2022-08-20T15:34:10.954Z,3.70
2022-08-20T15:37:23.452Z,3.60
2022-08-20T15:40:28.451Z,4.50
2022-08-20T15:43:31.231Z,5.00
2022-08-20T15:46:36.049Z,6.40
2022-08-20T15:49:40.957Z,6.20
2022-08-20T15:52:43.699Z,6.40
2022-08-20T15:55:54.333Z,7.30
2022-08-20T15:59:13.998Z,7.50
2022-08-20T16:02:52.904Z,9.00
2022-08-20T16:05:56.867Z,10.70
2022-08-20T16:09:26.157Z,10.60
2022-08-20T16:12:36.500Z,12.30
2022-08-20T16:15:39.856Z,14.10
2022-08-20T16:18:41.863Z,14.10
2022-08-20T16:21:44.033Z,15.00
2022-08-20T16:24:46.048Z,15.60
2022-08-20T16:28:03.090Z,14.90
2022-08-20T16:31:07.770Z,16.20
2022-08-20T16:34:34.354Z,14.60
2022-08-20T16:37:47.687Z,14.50
2022-08-20T16:40:58.259Z,13.90
2022-08-20T16:44:06.801Z,15.20
2022-08-20T16:47:19.041Z,15.20
2022-08-20T16:50:54.144Z,15.90
2022-08-20T16:53:56.136Z,16.10
2022-08-20T16:57:03.827Z,16.10
2022-08-20T17:00:08.100Z,17.10
2022-08-20T17:03:31.427Z,17.30
2022-08-20T17:06:47.337Z,18.90
2022-08-20T17:09:50.351Z,19.30
2022-08-20T17:12:58.332Z,19.70
2022-08-20T17:16:01.251Z,20.00
2022-08-20T17:19:12.091Z,19.20
2022-08-20T17:22:17.231Z,19.70
2022-08-20T17:25:40.236Z,18.10
2022-08-20T17:28:52.180Z,20.00
2022-08-20T17:31:54.987Z,19.40
2022-08-20T17:34:58.635Z,19.60
2022-08-20T17:38:01.320Z,20.00
2022-08-20T17:41:21.971Z,19.10
2022-08-20T17:44:29.394Z,20.10
2022-08-20T17:47:34.455Z,20.20
2022-08-20T17:50:38.810Z,20.10
2022-08-20T17:53:40.760Z,20.00
2022-08-20T17:56:42.934Z,19.90
2022-08-20T18:00:01.427Z,22.00
2022-08-20T18:03:17.601Z,22.10
2022-08-20T18:06:41.685Z,23.50
2022-08-20T18:10:13.923Z,24.40
2022-08-20T18:13:19.260Z,25.60
2022-08-20T18:16:33.126Z,24.30
2022-08-20T18:20:19.922Z,26.90
2022-08-20T18:23:26.551Z,28.80
2022-08-20T18:26:36.929Z,27.50
2022-08-20T18:29:41.262Z,28.70
2022-08-20T18:32:43.391Z,28.80
2022-08-20T18:35:46.313Z,28.70
2022-08-20T18:39:08.599Z,29.10
2022-08-20T18:42:27.059Z,33.80
2022-08-20T18:45:33.216Z,34.20
2022-08-20T18:48:35.124Z,33.10
2022-08-20T18:51:42.410Z,31.20
2022-08-20T18:54:50.708Z,35.50
2022-08-20T18:58:13.151Z,36.50
2022-08-20T19:01:15.403Z,32.80
2022-08-20T19:04:29.125Z,36.30
2022-08-20T19:07:48.826Z,36.30
2022-08-20T19:11:03.253Z,39.70
2022-08-20T19:14:20.371Z,39.60
2022-08-20T19:17:34.215Z,41.90
2022-08-20T19:20:39.600Z,39.80
2022-08-20T19:23:41.841Z,38.30
2022-08-20T19:26:46.690Z,39.20
2022-08-20T19:29:49.584Z,40.10
2022-08-20T19:32:52.220Z,39.70
2022-08-20T19:35:54.327Z,39.60
2022-08-20T19:38:57.440Z,39.00
2022-08-20T19:42:04.906Z,47.90
2022-08-20T19:45:08.380Z,47.00
2022-08-20T19:48:13.350Z,44.50
2022-08-20T19:51:29.276Z,46.20
2022-08-20T19:54:31.358Z,48.90
2022-08-20T19:57:33.309Z,47.70
2022-08-20T20:00:48.144Z,46.00
2022-08-20T20:04:02.707Z,52.50
2022-08-20T20:07:07.729Z,51.50
2022-08-20T20:10:11.640Z,48.80
2022-08-20T20:13:15.023Z,49.50
2022-08-20T20:16:18.289Z,50.00
2022-08-20T20:19:26.688Z,48.90
2022-08-20T20:22:34.399Z,49.80
2022-08-20T20:25:39.692Z,53.20
2022-08-20T20:28:48.809Z,55.60
2022-08-20T20:31:58.380Z,58.90
2022-08-20T20:35:02.032Z,60.70
2022-08-20T20:38:09.631Z,58.50
2022-08-20T20:41:19.230Z,61.30
2022-08-20T20:44:26.765Z,65.20
2022-08-20T20:47:32.822Z,67.60
2022-08-20T20:50:37.825Z,68.60
2022-08-20T20:53:53.101Z,67.20
2022-08-20T20:57:07.703Z,69.10
2022-08-20T21:00:19.877Z,67.60
2022-08-20T21:03:21.819Z,65.00
2022-08-20T21:06:26.060Z,64.90
2022-08-20T21:09:28.041Z,71.10
2022-08-20T21:12:29.968Z,69.60
2022-08-20T21:15:32.145Z,68.80
2022-08-20T21:18:36.659Z,70.30
2022-08-20T21:21:38.908Z,71.90
2022-08-20T21:24:40.719Z,73.70
2022-08-20T21:27:46.458Z,82.10
2022-08-20T21:30:48.516Z,76.50
2022-08-20T21:34:00.726Z,74.50
2022-08-20T21:37:02.584Z,70.70
2022-08-20T21:40:05.831Z,84.90
2022-08-20T21:43:08.254Z,75.60
2022-08-20T21:46:10.844Z,72.70
2022-08-20T21:49:15.527Z,73.30
2022-08-20T21:52:17.435Z,76.40
2022-08-20T21:55:19.368Z,75.60
2022-08-20T21:58:21.275Z,77.10
2022-08-20T22:01:23.507Z,78.10
2022-08-20T22:04:25.441Z,77.40
2022-08-20T22:07:27.346Z,79.80
2022-08-20T22:10:29.244Z,86.50
2022-08-20T22:13:32.915Z,81.50
2022-08-20T22:16:34.824Z,85.70
2022-08-20T22:19:36.751Z,83.20
2022-08-20T22:22:38.828Z,86.60
2022-08-20T22:25:40.967Z,90.40
2022-08-20T22:28:42.984Z,87.70
2022-08-20T22:31:44.925Z,87.40
2022-08-20T22:34:46.855Z,86.30
2022-08-20T22:37:48.757Z,87.50
2022-08-20T22:40:50.898Z,86.80
2022-08-20T22:43:56.427Z,89.60
2022-08-20T22:47:01.575Z,91.00
2022-08-20T22:50:04.727Z,92.10
2022-08-20T22:53:06.859Z,92.10
2022-08-20T22:56:08.741Z,91.00
2022-08-20T22:59:22.261Z,94.40
2022-08-20T23:02:24.722Z,93.00
2022-08-20T23:05:27.757Z,92.10
2022-08-20T23:08:30.659Z,93.00
2022-08-20T23:11:32.649Z,93.30
2022-08-20T23:14:34.695Z,96.80
2022-08-20T23:17:38.126Z,92.90
2022-08-20T23:20:41.064Z,93.30
2022-08-20T23:23:43.072Z,94.50
2022-08-20T23:26:53.195Z,93.10
2022-08-20T23:29:55.412Z,92.70
2022-08-20T23:32:57.457Z,92.60
2022-08-20T23:36:04.132Z,93.30
2022-08-20T23:39:07.407Z,91.70
2022-08-20T23:42:11.109Z,92.50
2022-08-20T23:45:13.134Z,92.80
2022-08-20T23:48:15.053Z,92.20
2022-08-20T23:51:17.026Z,93.30
2022-08-20T23:54:18.933Z,95.30
2022-08-20T23:57:21.217Z,93.80
